createdAt,value
2017-09-24T00:01:43.595Z,99.90
2017-09-24T00:09:18.370Z,99.90
2017-09-24T00:11:47.111Z,99.90
2017-09-24T00:19:16.305Z,99.90
2017-09-24T00:21:44.647Z,99.90
2017-09-24T00:26:42.540Z,99.90
2017-09-24T00:31:40.339Z,99.90
2017-09-24T00:36:38.966Z,99.90
2017-09-24T00:41:37.202Z,99.90
2017-09-24T00:44:05.495Z,99.90
2017-09-24T00:46:33.791Z,99.90
2017-09-24T00:56:31.494Z,99.90
2017-09-24T00:58:59.782Z,99.90
2017-09-24T01:01:30.496Z,99.90
2017-09-24T01:03:58.839Z,99.90
2017-09-24T01:06:27.899Z,99.90
2017-09-24T01:08:56.195Z,99.90
2017-09-24T01:11:24.831Z,99.90
2017-09-24T01:13:53.167Z,99.90
2017-09-24T01:16:22.608Z,99.90
2017-09-24T01:18:50.970Z,99.90
2017-09-24T01:21:20.040Z,99.90
2017-09-24T01:23:48.330Z,99.90
2017-09-24T01:26:18.166Z,99.90
2017-09-24T01:31:15.966Z,99.90
2017-09-24T01:33:45.088Z,99.90
2017-09-24T01:36:14.143Z,99.90
2017-09-24T01:38:43.219Z,99.90
2017-09-24T01:41:11.820Z,99.90
2017-09-24T01:43:40.876Z,99.90
2017-09-24T01:51:09.776Z,99.90
2017-09-24T01:53:38.827Z,99.90
2017-09-24T01:56:08.867Z,99.90
2017-09-24T02:01:06.682Z,99.90
2017-09-24T02:03:35.008Z,99.90
2017-09-24T02:06:03.297Z,99.90
2017-09-24T02:08:31.600Z,99.90
2017-09-24T02:11:00.722Z,99.90
2017-09-24T02:15:58.537Z,99.90
2017-09-24T02:18:28.377Z,99.90
2017-09-24T02:23:26.189Z,99.90
2017-09-24T02:28:24.303Z,99.90
2017-09-24T02:30:54.105Z,99.90
2017-09-24T02:33:22.718Z,99.90
2017-09-24T02:35:52.529Z,99.90
2017-09-24T02:38:20.848Z,99.90
2017-09-24T02:40:50.923Z,99.90
2017-09-24T02:43:19.209Z,99.90
2017-09-24T02:45:47.812Z,99.90
2017-09-24T02:48:17.303Z,99.90
2017-09-24T02:50:46.351Z,99.90
2017-09-24T02:53:14.640Z,99.90
2017-09-24T02:55:43.753Z,99.90
2017-09-24T02:58:12.032Z,99.90
2017-09-24T03:00:41.105Z,99.90
2017-09-24T03:03:09.823Z,99.90
2017-09-24T03:05:39.275Z,99.90
2017-09-24T03:08:07.555Z,99.90
2017-09-24T03:10:36.342Z,99.90
2017-09-24T03:15:34.159Z,99.90
2017-09-24T03:18:02.518Z,99.90
2017-09-24T03:20:30.810Z,99.90
2017-09-24T03:23:00.234Z,99.90
2017-09-24T03:25:28.578Z,99.90
2017-09-24T03:30:27.540Z,99.90
2017-09-24T03:32:56.644Z,99.90
2017-09-24T03:35:25.326Z,99.90
2017-09-24T03:37:53.611Z,99.90
2017-09-24T03:40:21.986Z,99.90
2017-09-24T03:42:50.274Z,99.90
2017-09-24T03:45:20.076Z,99.90
2017-09-24T03:47:49.270Z,99.90
2017-09-24T03:50:17.570Z,99.90
2017-09-24T03:52:45.859Z,99.90
2017-09-24T03:55:15.752Z,99.90
2017-09-24T03:57:44.048Z,99.90
2017-09-24T04:00:12.726Z,99.90
2017-09-24T04:02:41.854Z,99.90
2017-09-24T04:05:10.141Z,99.90
2017-09-24T04:07:38.441Z,99.90
2017-09-24T04:10:06.791Z,99.90
2017-09-24T04:15:04.641Z,99.90
2017-09-24T04:17:33.395Z,99.90
2017-09-24T04:20:01.689Z,99.90
2017-09-24T04:22:30.744Z,99.90
2017-09-24T04:25:00.199Z,99.90
2017-09-24T04:27:28.899Z,99.90
2017-09-24T04:29:57.187Z,99.90
2017-09-24T04:34:55.822Z,99.90
2017-09-24T04:37:24.122Z,99.90
2017-09-24T04:39:52.459Z,99.90
2017-09-24T04:42:20.766Z,99.90
2017-09-24T04:44:49.818Z,99.90
2017-09-24T04:47:19.319Z,99.90
2017-09-24T04:49:48.751Z,99.90
2017-09-24T04:52:17.444Z,99.90
2017-09-24T04:54:46.948Z,99.90
2017-09-24T04:59:45.165Z,99.90
2017-09-24T05:02:14.635Z,99.90
2017-09-24T05:04:42.922Z,99.90
2017-09-24T05:07:12.726Z,99.90
2017-09-24T05:09:42.358Z,99.90
2017-09-24T05:12:11.052Z,99.90
2017-09-24T05:14:39.336Z,99.90
2017-09-24T05:17:07.943Z,99.90
2017-09-24T05:19:37.367Z,99.90
2017-09-24T05:22:05.668Z,99.90
2017-09-24T05:24:34.003Z,99.90
2017-09-24T05:27:02.303Z,99.90
2017-09-24T05:29:30.596Z,99.90
2017-09-24T05:34:28.889Z,99.90
2017-09-24T05:36:57.178Z,99.90
2017-09-24T05:39:26.446Z,99.90
2017-09-24T05:41:55.153Z,99.90
2017-09-24T05:44:23.440Z,99.90
2017-09-24T05:46:52.555Z,99.90
2017-09-24T05:49:20.838Z,99.90
2017-09-24T05:51:49.137Z,99.90
2017-09-24T05:54:18.975Z,99.90
2017-09-24T05:56:47.267Z,99.90
2017-09-24T05:59:15.573Z,99.90
2017-09-24T06:01:43.924Z,99.90
2017-09-24T06:04:13.360Z,99.90
2017-09-24T06:06:41.660Z,99.90
2017-09-24T06:09:10.015Z,99.90
2017-09-24T06:11:38.303Z,99.90
2017-09-24T06:16:36.552Z,99.90
2017-09-24T06:19:04.851Z,99.90
2017-09-24T06:21:33.143Z,99.90
2017-09-24T06:24:02.264Z,99.90
2017-09-24T06:29:00.470Z,99.90
2017-09-24T06:31:29.080Z,99.90
2017-09-24T06:33:58.503Z,99.90
2017-09-24T06:36:26.796Z,99.90
2017-09-24T06:38:55.135Z,99.90
2017-09-24T06:41:23.428Z,99.90
2017-09-24T06:43:51.720Z,99.90
2017-09-24T06:46:20.409Z,99.90
2017-09-24T06:48:49.464Z,99.90
2017-09-24T06:51:17.755Z,99.90
2017-09-24T06:53:46.928Z,99.90
2017-09-24T06:56:16.354Z,99.90
2017-09-24T06:58:44.651Z,99.90
2017-09-24T07:01:13.009Z,99.90
2017-09-24T07:03:42.055Z,99.90
2017-09-24T07:06:10.346Z,99.90
2017-09-24T07:08:40.494Z,99.90
2017-09-24T07:11:09.558Z,99.90
2017-09-24T07:13:38.247Z,99.90
2017-09-24T07:16:06.585Z,99.90
2017-09-24T07:21:04.792Z,99.90
2017-09-24T07:23:33.914Z,99.90
2017-09-24T07:28:33.235Z,99.90
2017-09-24T07:31:01.591Z,99.90
2017-09-24T07:33:31.391Z,99.90
2017-09-24T07:36:00.448Z,99.90
2017-09-24T07:38:30.223Z,99.90
2017-09-24T07:40:58.514Z,99.90
2017-09-24T07:43:27.563Z,99.90
2017-09-24T07:45:56.189Z,99.90
2017-09-24T07:48:24.867Z,99.90
2017-09-24T07:50:53.159Z,99.90
2017-09-24T07:53:22.607Z,99.90
2017-09-24T07:55:50.883Z,99.90
2017-09-24T07:58:19.183Z,99.90
2017-09-24T08:00:49.032Z,99.90
2017-09-24T08:03:17.323Z,99.90
2017-09-24T08:05:45.623Z,99.90
2017-09-24T08:08:13.976Z,99.90
2017-09-24T08:10:43.035Z,99.90
2017-09-24T08:13:11.342Z,99.90
2017-09-24T08:15:43.116Z,99.90
2017-09-24T08:18:12.918Z,99.90
2017-09-24T08:20:41.206Z,99.90
2017-09-24T08:23:11.340Z,99.90
2017-09-24T08:25:40.400Z,99.90
2017-09-24T08:30:39.302Z,99.90
2017-09-24T08:33:07.978Z,99.90
2017-09-24T08:38:07.240Z,99.90
2017-09-24T08:43:06.174Z,99.90
2017-09-24T08:45:34.512Z,99.90
2017-09-24T08:48:03.554Z,99.90
2017-09-24T08:50:31.858Z,99.90
2017-09-24T08:53:00.954Z,99.90
2017-09-24T08:55:29.253Z,99.90
2017-09-24T08:57:57.546Z,99.90
2017-09-24T09:02:56.155Z,99.90
2017-09-24T09:05:24.443Z,99.90
2017-09-24T09:07:52.911Z,99.90
2017-09-24T09:10:21.587Z,99.90
2017-09-24T09:12:51.015Z,99.90
2017-09-24T09:15:20.019Z,99.90
2017-09-24T09:17:49.070Z,99.90
2017-09-24T09:20:17.362Z,99.90
2017-09-24T09:22:46.842Z,98.80
2017-09-24T09:25:15.136Z,98.20
2017-09-24T09:27:45.259Z,98.60
2017-09-24T09:30:13.598Z,96.50
2017-09-24T09:32:43.571Z,97.20
2017-09-24T09:35:14.383Z,96.90
2017-09-24T09:37:43.072Z,96.70
2017-09-24T09:40:11.362Z,94.80
2017-09-24T09:42:40.479Z,95.70
2017-09-24T09:47:55.581Z,93.40
2017-09-24T09:50:25.377Z,94.60
2017-09-24T09:52:53.665Z,94.90
2017-09-24T09:55:22.027Z,94.20
2017-09-24T09:57:51.808Z,94.50
2017-09-24T10:02:50.427Z,92.70
2017-09-24T10:05:20.221Z,94.20
2017-09-24T10:08:01.947Z,94.00
2017-09-24T10:10:30.236Z,93.50
2017-09-24T10:12:58.940Z,93.90
2017-09-24T10:15:29.435Z,92.20
2017-09-24T10:18:01.340Z,93.40
2017-09-24T10:20:30.055Z,91.70
2017-09-24T10:22:59.810Z,91.30
2017-09-24T10:25:28.102Z,91.30
2017-09-24T10:27:56.397Z,90.70
2017-09-24T10:33:01.268Z,90.50
2017-09-24T10:35:30.328Z,90.20
2017-09-24T10:37:59.064Z,90.80
2017-09-24T10:40:27.747Z,89.60
2017-09-24T10:42:56.039Z,90.10
2017-09-24T10:45:27.112Z,90.90
2017-09-24T10:50:26.067Z,87.90
2017-09-24T10:52:54.412Z,86.50
2017-09-24T10:55:22.710Z,88.20
2017-09-24T11:00:20.831Z,87.20
2017-09-24T11:02:49.116Z,90.10
2017-09-24T11:05:17.397Z,88.80
2017-09-24T11:10:15.603Z,90.60
2017-09-24T11:12:43.896Z,87.60
2017-09-24T11:15:12.251Z,86.60
2017-09-24T11:17:40.544Z,86.30
2017-09-24T11:20:09.597Z,88.00
2017-09-24T11:25:07.912Z,90.00
2017-09-24T11:27:36.198Z,90.60
2017-09-24T11:30:05.232Z,92.20
2017-09-24T11:35:04.530Z,88.90
2017-09-24T11:37:33.193Z,91.10
2017-09-24T11:40:02.627Z,90.30
2017-09-24T11:47:31.114Z,90.50
2017-09-24T11:50:00.179Z,91.20
2017-09-24T11:57:28.024Z,88.70
2017-09-24T11:59:56.694Z,86.80
2017-09-24T12:02:25.379Z,84.50
2017-09-24T12:04:53.665Z,89.80
2017-09-24T12:07:23.499Z,84.60
2017-09-24T12:12:21.691Z,86.50
2017-09-24T12:14:50.034Z,89.40
2017-09-24T12:17:18.323Z,83.10
2017-09-24T12:22:19.342Z,82.30
2017-09-24T12:24:48.767Z,83.30
2017-09-24T12:27:17.059Z,81.80
2017-09-24T12:29:45.391Z,86.10
2017-09-24T12:32:13.712Z,84.70
2017-09-24T12:34:42.762Z,82.70
2017-09-24T12:37:12.239Z,85.80
2017-09-24T12:39:40.929Z,84.50
2017-09-24T12:42:09.227Z,88.30
2017-09-24T12:44:37.568Z,87.60
2017-09-24T12:47:05.850Z,89.50
2017-09-24T12:49:34.149Z,90.10
2017-09-24T12:54:32.047Z,89.90
2017-09-24T12:57:00.324Z,87.40
2017-09-24T12:59:28.663Z,86.30
2017-09-24T13:01:56.956Z,84.70
2017-09-24T13:04:25.247Z,90.30
2017-09-24T13:06:55.099Z,89.40
2017-09-24T13:09:23.389Z,87.50
2017-09-24T13:11:51.687Z,86.90
2017-09-24T13:14:21.557Z,89.60
2017-09-24T13:16:49.842Z,88.00
2017-09-24T13:19:18.899Z,86.90
2017-09-24T13:21:48.275Z,83.80
2017-09-24T13:24:16.963Z,86.40
2017-09-24T13:26:45.263Z,86.60
2017-09-24T13:29:13.622Z,86.00
2017-09-24T13:31:41.922Z,85.90
2017-09-24T13:34:10.210Z,86.90
2017-09-24T13:36:38.905Z,88.00
2017-09-24T13:39:07.592Z,86.10
2017-09-24T13:41:35.879Z,85.40
2017-09-24T13:44:04.611Z,84.60
2017-09-24T13:46:34.412Z,88.60
2017-09-24T13:49:02.731Z,89.10
2017-09-24T13:51:31.072Z,90.40
2017-09-24T13:53:59.361Z,90.50
2017-09-24T13:56:27.650Z,91.00
2017-09-24T13:58:56.831Z,90.30
2017-09-24T14:01:25.882Z,90.50
2017-09-24T14:03:55.315Z,89.90
2017-09-24T14:06:23.663Z,90.10
2017-09-24T14:11:21.481Z,90.60
2017-09-24T14:13:49.822Z,91.80
2017-09-24T14:16:19.247Z,91.10
2017-09-24T14:18:47.535Z,91.40
2017-09-24T14:21:16.641Z,91.60
2017-09-24T14:23:45.709Z,91.10
2017-09-24T14:26:13.998Z,90.20
2017-09-24T14:28:42.480Z,91.40
2017-09-24T14:31:10.771Z,90.60
2017-09-24T14:33:40.571Z,91.10
2017-09-24T14:38:39.195Z,88.90
2017-09-24T14:41:07.485Z,90.20
2017-09-24T14:43:36.174Z,88.90
2017-09-24T14:46:05.226Z,89.30
2017-09-24T14:48:34.659Z,89.30
2017-09-24T14:51:02.995Z,89.90
2017-09-24T14:56:01.200Z,90.90
2017-09-24T14:58:29.526Z,90.20
2017-09-24T15:00:58.589Z,91.20
2017-09-24T15:05:58.231Z,90.90
2017-09-24T15:08:26.532Z,90.80
2017-09-24T15:10:54.818Z,90.50
2017-09-24T15:13:23.171Z,91.70
2017-09-24T15:15:52.604Z,90.70
2017-09-24T15:18:20.896Z,91.70
2017-09-24T15:20:49.249Z,92.00
2017-09-24T15:23:17.539Z,91.10
2017-09-24T15:30:45.008Z,91.50
2017-09-24T15:33:14.808Z,92.10
2017-09-24T15:35:43.886Z,92.10
2017-09-24T15:38:12.939Z,92.10
2017-09-24T15:40:41.226Z,91.00
2017-09-24T15:45:39.863Z,91.60
2017-09-24T15:48:08.158Z,92.30
2017-09-24T15:50:36.519Z,92.60
2017-09-24T15:55:34.320Z,93.60
2017-09-24T15:58:02.651Z,93.70
2017-09-24T16:00:30.940Z,92.50
2017-09-24T16:02:59.234Z,93.10
2017-09-24T16:10:28.651Z,93.90
2017-09-24T16:12:58.492Z,94.20
2017-09-24T16:15:26.781Z,93.70
2017-09-24T16:17:55.465Z,93.30
2017-09-24T16:20:24.279Z,92.80
2017-09-24T16:22:52.972Z,92.60
2017-09-24T16:25:21.259Z,93.70
2017-09-24T16:27:50.006Z,94.20
2017-09-24T16:30:18.282Z,94.10
2017-09-24T16:32:46.572Z,94.60
2017-09-24T16:35:14.907Z,94.50
2017-09-24T16:37:44.323Z,98.10
2017-09-24T16:42:42.943Z,99.90
2017-09-24T16:45:11.231Z,99.90
2017-09-24T16:47:41.025Z,99.90
2017-09-24T16:55:08.890Z,99.90
2017-09-24T16:57:38.378Z,99.90
2017-09-24T17:00:06.672Z,99.90
2017-09-24T17:02:35.729Z,99.90
2017-09-24T17:05:04.419Z,99.90
2017-09-24T17:07:33.106Z,99.90
2017-09-24T17:10:01.404Z,99.90
2017-09-24T17:12:29.747Z,99.90
2017-09-24T17:14:58.039Z,99.90
2017-09-24T17:17:26.335Z,99.90
2017-09-24T17:22:24.575Z,99.90
2017-09-24T17:24:52.867Z,99.90
2017-09-24T17:27:22.079Z,99.90
2017-09-24T17:29:50.379Z,99.90
2017-09-24T17:32:20.451Z,99.90
2017-09-24T17:34:48.809Z,99.90
2017-09-24T17:37:18.610Z,99.90
2017-09-24T17:39:46.894Z,99.90
2017-09-24T17:42:15.608Z,99.90
2017-09-24T17:44:44.671Z,99.90
2017-09-24T17:47:12.966Z,99.90
2017-09-24T17:49:41.308Z,99.90
2017-09-24T17:52:10.363Z,99.90
2017-09-24T17:54:39.420Z,99.90
2017-09-24T17:57:08.149Z,99.90
2017-09-24T17:59:36.449Z,99.90
2017-09-24T18:02:04.747Z,99.90
2017-09-24T18:04:33.475Z,99.90
2017-09-24T18:07:01.764Z,99.90
2017-09-24T18:12:00.394Z,99.90
2017-09-24T18:14:28.692Z,99.90
2017-09-24T18:16:58.119Z,99.90
2017-09-24T18:19:27.215Z,99.90
2017-09-24T18:21:55.515Z,99.90
2017-09-24T18:24:24.567Z,99.90
2017-09-24T18:26:53.220Z,99.90
2017-09-24T18:29:21.510Z,99.90
2017-09-24T18:31:49.800Z,99.90
2017-09-24T18:34:18.148Z,99.90
2017-09-24T18:36:47.579Z,99.90
2017-09-24T18:41:45.869Z,99.90
2017-09-24T18:44:14.555Z,99.90
2017-09-24T18:46:43.615Z,99.90
2017-09-24T18:49:12.720Z,99.90
2017-09-24T18:51:41.776Z,99.90
2017-09-24T18:54:10.063Z,99.90
2017-09-24T18:56:38.389Z,99.90
2017-09-24T18:59:06.679Z,99.90
2017-09-24T19:01:36.115Z,99.90
2017-09-24T19:04:04.451Z,99.90
2017-09-24T19:06:32.735Z,99.90
2017-09-24T19:09:01.041Z,99.90
2017-09-24T19:11:29.365Z,99.90
2017-09-24T19:13:58.802Z,99.90
2017-09-24T19:18:57.436Z,99.90
2017-09-24T19:21:26.521Z,99.90
2017-09-24T19:26:24.651Z,99.90
2017-09-24T19:28:54.451Z,99.90
2017-09-24T19:33:53.831Z,99.90
2017-09-24T19:36:22.119Z,99.90
2017-09-24T19:41:19.963Z,99.90
2017-09-24T19:43:48.255Z,99.90
2017-09-24T19:46:16.544Z,99.90
2017-09-24T19:48:45.156Z,99.90
2017-09-24T19:51:13.439Z,99.90
2017-09-24T19:53:42.497Z,99.90
2017-09-24T19:56:11.611Z,99.90
2017-09-24T19:58:39.906Z,99.90
2017-09-24T20:01:09.391Z,99.90
2017-09-24T20:03:37.829Z,99.90
2017-09-24T20:06:06.132Z,99.90
2017-09-24T20:13:33.503Z,99.90
2017-09-24T20:16:02.930Z,99.90
2017-09-24T20:18:31.258Z,99.90
2017-09-24T20:21:00.313Z,99.90
2017-09-24T20:23:28.611Z,99.90
2017-09-24T20:28:26.467Z,99.90
2017-09-24T20:30:54.763Z,99.90
2017-09-24T20:33:23.379Z,99.90
2017-09-24T20:35:52.432Z,99.90
2017-09-24T20:38:20.725Z,99.90
2017-09-24T20:40:49.832Z,99.90
2017-09-24T20:45:47.631Z,99.90
2017-09-24T20:48:15.975Z,99.90
2017-09-24T20:50:45.031Z,99.90
2017-09-24T20:53:13.322Z,99.90
2017-09-24T20:55:41.659Z,99.90
2017-09-24T20:58:10.735Z,99.90
2017-09-24T21:00:40.183Z,99.90
2017-09-24T21:03:09.290Z,99.90
2017-09-24T21:05:37.976Z,99.90
2017-09-24T21:08:06.269Z,99.90
2017-09-24T21:10:34.604Z,99.90
2017-09-24T21:13:02.898Z,99.90
2017-09-24T21:15:31.187Z,99.90
2017-09-24T21:18:00.660Z,99.90
2017-09-24T21:20:28.962Z,99.90
2017-09-24T21:22:57.275Z,99.90
2017-09-24T21:25:25.616Z,99.90
2017-09-24T21:27:53.902Z,99.90
2017-09-24T21:32:53.328Z,99.90
2017-09-24T21:35:22.023Z,99.90
2017-09-24T21:37:50.311Z,99.90
2017-09-24T21:40:20.845Z,99.90
2017-09-24T21:42:49.528Z,99.90
2017-09-24T21:45:17.817Z,99.90
2017-09-24T21:47:46.171Z,99.90
2017-09-24T21:50:15.602Z,99.90
2017-09-24T21:52:43.900Z,99.90
2017-09-24T21:55:13.021Z,99.90
2017-09-24T21:57:42.069Z,99.90
2017-09-24T22:00:11.118Z,99.90
2017-09-24T22:02:40.598Z,99.90
2017-09-24T22:05:08.888Z,99.90
2017-09-24T22:10:07.783Z,99.90
2017-09-24T22:12:36.839Z,99.90
2017-09-24T22:15:05.896Z,99.90
2017-09-24T22:17:35.375Z,99.90
2017-09-24T22:20:04.959Z,99.90
2017-09-24T22:22:33.258Z,99.90
2017-09-24T22:25:01.591Z,99.90
2017-09-24T22:27:29.874Z,99.90
2017-09-24T22:29:58.171Z,99.90
2017-09-24T22:32:27.631Z,99.90
2017-09-24T22:34:56.316Z,99.90
2017-09-24T22:37:24.608Z,99.90
2017-09-24T22:39:52.956Z,99.90
2017-09-24T22:42:22.374Z,99.90
2017-09-24T22:44:50.667Z,99.90
2017-09-24T22:47:19.052Z,99.90
2017-09-24T22:49:47.335Z,99.90
2017-09-24T22:52:17.122Z,99.90
2017-09-24T22:57:16.383Z,99.90
2017-09-24T22:59:45.067Z,99.90
2017-09-24T23:02:13.682Z,99.90
2017-09-24T23:07:11.488Z,99.90
2017-09-24T23:09:40.179Z,99.90
2017-09-24T23:12:09.228Z,99.90
2017-09-24T23:14:37.519Z,99.90
2017-09-24T23:17:06.640Z,99.90
2017-09-24T23:19:34.923Z,99.90
2017-09-24T23:22:03.974Z,99.90
2017-09-24T23:24:32.331Z,99.90
2017-09-24T23:27:00.620Z,99.90
2017-09-24T23:29:28.909Z,99.90
2017-09-24T23:31:57.270Z,99.90
2017-09-24T23:34:25.560Z,99.90
2017-09-24T23:36:54.615Z,99.90
2017-09-24T23:39:23.722Z,99.90
2017-09-24T23:41:52.778Z,99.90
2017-09-24T23:44:21.055Z,99.90
2017-09-24T23:46:50.965Z,99.90
2017-09-24T23:49:19.264Z,99.90
2017-09-24T23:51:47.561Z,99.90
2017-09-24T23:54:15.907Z,99.90
2017-09-24T23:56:44.203Z,99.90
